createdAt,value
2022-08-10T00:01:52.243Z,67.68
2022-08-10T00:04:24.121Z,67.16
2022-08-10T00:06:55.740Z,67.41
2022-08-10T00:09:24.452Z,67.61
2022-08-10T00:11:51.855Z,67.57
2022-08-10T00:14:19.277Z,66.97
2022-08-10T00:16:46.553Z,66.95
2022-08-10T00:19:16.778Z,67.33
2022-08-10T00:21:47.431Z,66.94
2022-08-10T00:24:15.405Z,67.55
2022-08-10T00:27:52.230Z,67.72
2022-08-10T00:29:30.083Z,68.07
2022-08-10T00:31:59.104Z,68.75
2022-08-10T00:34:32.439Z,69.18
2022-08-10T00:37:00.303Z,69.18
2022-08-10T00:39:29.277Z,69.08
2022-08-10T00:42:06.880Z,68.67
2022-08-10T00:44:50.247Z,68.44
2022-08-10T00:47:36.287Z,69.64
2022-08-10T00:50:07.206Z,68.14
2022-08-10T00:52:36.955Z,67.76
2022-08-10T00:55:06.253Z,67.87
2022-08-10T00:57:35.225Z,67.37
2022-08-10T01:00:05.647Z,67.79
2022-08-10T01:02:33.521Z,68.23
2022-08-10T01:05:15.633Z,67.42
2022-08-10T01:07:51.366Z,67.96
2022-08-10T01:10:54.553Z,67.98
2022-08-10T01:13:44.263Z,67.86
2022-08-10T01:17:01.891Z,69.08
2022-08-10T01:19:59.700Z,68.62
2022-08-10T01:22:53.153Z,69.14
2022-08-10T01:26:12.444Z,68.98
2022-08-10T01:28:58.059Z,68.44
2022-08-10T01:31:32.197Z,68.77
2022-08-10T01:34:07.839Z,68.62
2022-08-10T01:37:01.304Z,67.63
2022-08-10T01:39:39.547Z,68.74
2022-08-10T01:42:15.887Z,68.16
2022-08-10T01:45:17.513Z,68.47
2022-08-10T01:48:06.424Z,69.15
2022-08-10T01:50:59.415Z,68.87
2022-08-10T01:53:53.652Z,68.00
2022-08-10T01:56:24.707Z,68.29
2022-08-10T01:58:59.855Z,68.44
2022-08-10T02:01:32.640Z,69.16
2022-08-10T02:04:06.928Z,69.08
2022-08-10T02:06:46.089Z,68.46
2022-08-10T02:09:19.956Z,68.43
2022-08-10T02:12:06.346Z,69.03
2022-08-10T02:14:46.961Z,68.04
2022-08-10T02:17:58.492Z,68.13
2022-08-10T02:20:18.374Z,67.81
2022-08-10T02:22:53.260Z,67.74
2022-08-10T02:25:40.936Z,69.12
2022-08-10T02:28:29.822Z,69.30
2022-08-10T02:31:16.841Z,68.69
2022-08-10T02:33:57.208Z,68.98
2022-08-10T02:36:29.661Z,68.30
2022-08-10T02:39:01.983Z,69.27
2022-08-10T02:45:12.621Z,68.12
2022-08-10T02:45:23.510Z,68.13
2022-08-10T02:48:06.006Z,69.47
2022-08-10T02:50:40.122Z,70.49
2022-08-10T02:53:51.390Z,68.83
2022-08-10T02:56:39.800Z,69.13
2022-08-10T02:59:22.585Z,69.10
2022-08-10T03:01:54.464Z,69.38
2022-08-10T03:04:55.442Z,68.86
2022-08-10T03:07:43.261Z,69.12
2022-08-10T03:10:32.573Z,68.08
2022-08-10T03:13:31.796Z,68.01
2022-08-10T03:16:01.573Z,68.99
2022-08-10T03:18:32.683Z,68.83
2022-08-10T03:21:00.957Z,69.04
2022-08-10T03:23:29.355Z,68.57
2022-08-10T03:25:59.191Z,68.32
2022-08-10T03:28:32.533Z,68.61
2022-08-10T03:31:01.697Z,68.46
2022-08-10T03:33:37.109Z,68.35
2022-08-10T03:36:41.943Z,68.00
2022-08-10T03:38:53.515Z,69.24
2022-08-10T03:41:35.759Z,67.89
2022-08-10T03:44:05.237Z,67.40
2022-08-10T03:46:37.410Z,68.89
2022-08-10T03:49:05.916Z,68.67
2022-08-10T03:51:34.872Z,68.63
2022-08-10T03:54:07.362Z,68.52
2022-08-10T03:56:40.521Z,69.25
2022-08-10T03:59:12.343Z,68.64
2022-08-10T04:02:45.458Z,68.60
2022-08-10T04:04:30.976Z,68.43
2022-08-10T04:07:00.327Z,69.26
2022-08-10T04:09:55.668Z,68.93
2022-08-10T04:12:18.309Z,67.70
2022-08-10T04:14:50.358Z,68.07
2022-08-10T04:18:01.169Z,66.99
2022-08-10T04:20:37.990Z,66.46
2022-08-10T04:23:23.726Z,66.33
2022-08-10T04:25:52.710Z,68.01
2022-08-10T04:28:20.736Z,66.68
2022-08-10T04:30:52.969Z,67.15
2022-08-10T04:33:22.739Z,66.25
2022-08-10T04:35:52.175Z,67.10
2022-08-10T04:38:20.702Z,67.35
2022-08-10T04:40:48.283Z,67.26
2022-08-10T04:43:15.865Z,66.48
2022-08-10T04:45:49.470Z,66.19
2022-08-10T04:48:40.877Z,66.20
2022-08-10T04:51:10.755Z,66.23
2022-08-10T04:54:04.597Z,66.82
2022-08-10T04:56:34.942Z,65.58
2022-08-10T04:59:02.269Z,65.07
2022-08-10T05:02:21.623Z,66.77
2022-08-10T05:04:38.458Z,66.80
2022-08-10T05:07:17.049Z,67.50
2022-08-10T05:10:04.614Z,67.10
2022-08-10T05:12:39.005Z,67.65
2022-08-10T05:15:11.786Z,67.89
2022-08-10T05:17:41.549Z,68.76
2022-08-10T05:20:29.130Z,69.61
2022-08-10T05:22:56.181Z,69.09
2022-08-10T05:25:23.270Z,68.41
2022-08-10T05:27:52.328Z,67.97
2022-08-10T05:30:24.919Z,68.07
2022-08-10T05:32:57.138Z,67.23
2022-08-10T05:35:52.441Z,67.49
2022-08-10T05:38:18.146Z,67.06
2022-08-10T05:40:47.876Z,66.22
2022-08-10T05:43:21.219Z,65.80
2022-08-10T05:46:17.683Z,65.43
2022-08-10T05:48:58.858Z,65.31
2022-08-10T05:51:30.275Z,64.88
2022-08-10T05:54:02.155Z,62.65
2022-08-10T05:56:55.678Z,61.88
2022-08-10T06:00:12.679Z,58.61
2022-08-10T06:02:34.968Z,59.27
2022-08-10T06:05:16.231Z,59.08
2022-08-10T06:07:51.908Z,59.27
2022-08-10T06:10:31.509Z,61.96
2022-08-10T06:13:29.634Z,57.27
2022-08-10T06:16:12.649Z,54.10
2022-08-10T06:18:40.898Z,54.62
2022-08-10T06:21:09.692Z,52.90
2022-08-10T06:23:39.433Z,48.28
2022-08-10T06:26:11.755Z,51.06
2022-08-10T06:29:07.090Z,46.42
2022-08-10T06:31:48.032Z,46.04
2022-08-10T06:34:34.550Z,45.36
2022-08-10T06:37:08.182Z,45.77
2022-08-10T06:39:37.050Z,45.47
2022-08-10T06:42:38.038Z,44.26
2022-08-10T06:45:35.386Z,42.78
2022-08-10T06:48:04.895Z,43.17
2022-08-10T06:50:58.022Z,41.80
2022-08-10T06:53:53.343Z,43.31
2022-08-10T06:56:37.628Z,40.33
2022-08-10T06:59:30.158Z,39.13
2022-08-10T07:02:25.108Z,37.80
2022-08-10T07:05:01.061Z,40.41
2022-08-10T07:07:37.818Z,36.95
2022-08-10T07:10:06.194Z,35.87
2022-08-10T07:12:36.631Z,36.24
2022-08-10T07:15:05.124Z,38.81
2022-08-10T07:17:37.323Z,35.92
2022-08-10T07:20:09.511Z,35.33
2022-08-10T07:23:01.648Z,35.08
2022-08-10T07:25:29.580Z,36.03
2022-08-10T07:28:01.789Z,35.35
2022-08-10T07:30:32.933Z,34.96
2022-08-10T07:33:02.783Z,36.60
2022-08-10T07:35:42.916Z,35.57
2022-08-10T07:38:31.865Z,34.92
2022-08-10T07:41:02.839Z,34.16
2022-08-10T07:43:40.548Z,35.51
2022-08-10T07:46:24.748Z,34.32
2022-08-10T07:49:02.919Z,33.30
2022-08-10T07:51:54.911Z,35.07
2022-08-10T07:54:25.504Z,32.48
2022-08-10T07:56:59.929Z,32.20
2022-08-10T07:59:45.050Z,33.10
2022-08-10T08:02:50.440Z,33.52
2022-08-10T08:05:29.892Z,32.58
2022-08-10T08:08:15.928Z,34.06
2022-08-10T08:10:43.498Z,33.52
2022-08-10T08:13:11.589Z,34.37
2022-08-10T08:16:19.941Z,34.87
2022-08-10T08:18:29.369Z,31.58
2022-08-10T08:20:58.245Z,28.03
2022-08-10T08:24:16.396Z,31.61
2022-08-10T08:26:18.655Z,29.60
2022-08-10T08:28:46.511Z,28.85
2022-08-10T08:31:16.067Z,28.56
2022-08-10T08:33:49.053Z,26.12
2022-08-10T08:36:19.852Z,28.63
2022-08-10T08:38:48.366Z,27.32
2022-08-10T08:41:55.758Z,25.43
2022-08-10T08:45:00.609Z,24.88
2022-08-10T08:48:04.687Z,24.73
2022-08-10T08:51:10.860Z,24.98
2022-08-10T08:54:01.207Z,28.94
2022-08-10T08:56:59.978Z,29.54
2022-08-10T09:00:06.949Z,31.03
2022-08-10T09:03:15.916Z,31.47
2022-08-10T09:05:59.490Z,28.34
2022-08-10T09:08:42.902Z,30.94
2022-08-10T09:11:34.123Z,31.41
2022-08-10T09:14:33.196Z,32.28
2022-08-10T09:17:19.010Z,29.80
2022-08-10T09:20:08.468Z,28.36
2022-08-10T09:22:57.276Z,27.09
2022-08-10T09:25:32.666Z,29.10
2022-08-10T09:28:16.993Z,24.23
2022-08-10T09:31:18.762Z,27.07
2022-08-10T09:36:25.147Z,28.04
2022-08-10T09:37:16.677Z,25.98
2022-08-10T09:40:56.560Z,24.16
2022-08-10T09:43:24.963Z,22.78
2022-08-10T09:46:20.819Z,21.09
2022-08-10T09:49:04.737Z,18.62
2022-08-10T09:52:07.317Z,18.58
2022-08-10T09:55:04.795Z,20.65
2022-08-10T09:57:58.913Z,21.97
2022-08-10T10:01:56.410Z,21.54
2022-08-10T10:04:30.901Z,21.63
2022-08-10T10:07:08.643Z,22.31
2022-08-10T10:10:08.989Z,22.83
2022-08-10T10:13:06.137Z,23.76
2022-08-10T10:16:24.397Z,22.81
2022-08-10T10:19:15.966Z,20.00
2022-08-10T10:22:01.247Z,21.18
2022-08-10T10:25:19.771Z,22.45
2022-08-10T10:28:44.451Z,22.80
2022-08-10T10:31:53.641Z,22.02
2022-08-10T10:35:07.789Z,20.83
2022-08-10T10:38:00.920Z,23.92
2022-08-10T10:40:32.753Z,25.67
2022-08-10T10:43:51.637Z,24.06
2022-08-10T10:46:48.427Z,24.41
2022-08-10T10:49:42.935Z,24.05
2022-08-10T10:53:21.384Z,20.05
2022-08-10T10:56:15.475Z,24.63
2022-08-10T10:59:15.322Z,24.52
2022-08-10T11:02:11.869Z,24.26
2022-08-10T11:04:59.249Z,26.42
2022-08-10T11:07:40.291Z,22.63
2022-08-10T11:10:32.897Z,23.14
2022-08-10T11:14:25.050Z,24.36
2022-08-10T11:16:19.990Z,21.49
2022-08-10T11:20:02.387Z,21.01
2022-08-10T11:22:59.123Z,21.74
2022-08-10T11:25:56.069Z,21.56
2022-08-10T11:28:50.145Z,22.68
2022-08-10T11:31:37.769Z,21.60
2022-08-10T11:35:11.296Z,21.03
2022-08-10T11:38:32.900Z,21.17
2022-08-10T11:42:09.257Z,21.02
2022-08-10T11:44:43.529Z,20.60
2022-08-10T11:47:27.643Z,22.06
2022-08-10T11:50:17.542Z,22.86
2022-08-10T11:53:20.923Z,21.98
2022-08-10T11:55:56.190Z,20.99
2022-08-10T11:58:47.214Z,21.24
2022-08-10T12:01:19.024Z,22.00
2022-08-10T12:03:48.245Z,22.67
2022-08-10T12:06:33.991Z,21.49
2022-08-10T12:10:07.479Z,21.10
2022-08-10T12:11:58.263Z,23.36
2022-08-10T12:14:41.841Z,22.93
2022-08-10T12:17:40.914Z,22.65
2022-08-10T12:20:26.315Z,23.09
2022-08-10T12:23:10.596Z,22.83
2022-08-10T12:25:57.821Z,22.85
2022-08-10T12:28:50.295Z,22.29
2022-08-10T12:31:31.070Z,22.40
2022-08-10T12:34:20.175Z,24.08
2022-08-10T12:37:22.690Z,23.76
2022-08-10T12:40:34.344Z,25.61
2022-08-10T12:44:05.553Z,25.26
2022-08-10T12:46:32.753Z,25.41
2022-08-10T12:49:33.542Z,27.61
2022-08-10T12:52:27.619Z,26.80
2022-08-10T12:54:58.836Z,27.08
2022-08-10T12:57:28.013Z,27.49
2022-08-10T13:00:01.618Z,23.74
2022-08-10T13:02:33.773Z,24.55
2022-08-10T13:05:11.214Z,24.99
2022-08-10T13:08:25.612Z,23.86
2022-08-10T13:10:33.135Z,25.87
2022-08-10T13:13:02.162Z,26.01
2022-08-10T13:15:49.491Z,27.55
2022-08-10T13:18:34.635Z,26.16
2022-08-10T13:21:20.306Z,27.55
2022-08-10T13:24:23.963Z,25.90
2022-08-10T13:27:24.607Z,26.64
2022-08-10T13:30:12.092Z,24.44
2022-08-10T13:32:47.045Z,25.30
2022-08-10T13:35:17.681Z,27.03
2022-08-10T13:37:48.332Z,25.64
2022-08-10T13:40:20.489Z,24.61
2022-08-10T13:42:49.773Z,27.73
2022-08-10T13:45:21.172Z,26.42
2022-08-10T13:48:14.661Z,24.55
2022-08-10T13:50:43.847Z,26.38
2022-08-10T13:53:15.438Z,26.66
2022-08-10T13:55:54.781Z,26.64
2022-08-10T13:58:32.925Z,26.40
2022-08-10T14:01:15.310Z,27.29
2022-08-10T14:03:44.720Z,26.54
2022-08-10T14:06:20.925Z,26.61
2022-08-10T14:09:01.592Z,25.49
2022-08-10T14:11:30.680Z,26.43
2022-08-10T14:13:59.116Z,28.94
2022-08-10T14:16:27.224Z,27.48
2022-08-10T14:18:58.162Z,25.33
2022-08-10T14:21:25.516Z,25.83
2022-08-10T14:23:53.913Z,26.42
2022-08-10T14:26:29.107Z,24.94
2022-08-10T14:29:09.492Z,25.93
2022-08-10T14:31:39.234Z,26.63
2022-08-10T14:36:14.692Z,26.40
2022-08-10T14:37:44.875Z,24.95
2022-08-10T14:40:22.180Z,25.40
2022-08-10T14:43:01.768Z,26.64
2022-08-10T14:45:37.067Z,25.68
2022-08-10T14:48:14.626Z,24.87
2022-08-10T14:50:55.443Z,26.75
2022-08-10T14:53:27.431Z,25.56
2022-08-10T14:56:08.057Z,23.60
2022-08-10T14:59:06.980Z,23.64
2022-08-10T15:02:00.535Z,23.72
2022-08-10T15:04:28.892Z,23.30
2022-08-10T15:07:00.891Z,22.49
2022-08-10T15:09:59.400Z,25.17
2022-08-10T15:12:40.573Z,23.50
2022-08-10T15:15:16.503Z,22.92
2022-08-10T15:17:57.360Z,23.54
2022-08-10T15:20:27.838Z,24.09
2022-08-10T15:23:30.074Z,22.64
2022-08-10T15:26:11.170Z,23.02
2022-08-10T15:29:22.246Z,22.92
2022-08-10T15:31:55.488Z,24.59
2022-08-10T15:35:03.039Z,23.22
2022-08-10T15:37:39.412Z,25.16
2022-08-10T15:40:24.726Z,23.81
2022-08-10T15:43:05.618Z,24.23
2022-08-10T15:46:29.935Z,24.64
2022-08-10T15:49:05.719Z,24.73
2022-08-10T15:51:53.901Z,22.78
2022-08-10T15:54:33.781Z,24.53
2022-08-10T15:57:18.027Z,24.33
2022-08-10T15:59:55.020Z,24.81
2022-08-10T16:02:28.850Z,25.04
2022-08-10T16:05:21.664Z,24.97
2022-08-10T16:08:13.937Z,27.05
2022-08-10T16:10:53.446Z,25.81
2022-08-10T16:13:50.581Z,27.57
2022-08-10T16:16:14.114Z,26.78
2022-08-10T16:18:45.752Z,26.26
2022-08-10T16:21:23.990Z,25.86
2022-08-10T16:24:15.318Z,27.58
2022-08-10T16:26:53.247Z,27.21
2022-08-10T16:29:27.509Z,27.63
2022-08-10T16:32:04.277Z,26.82
2022-08-10T16:34:36.827Z,27.98
2022-08-10T16:37:14.015Z,28.35
2022-08-10T16:39:58.077Z,28.73
2022-08-10T16:42:42.987Z,28.25
2022-08-10T16:45:39.265Z,28.74
2022-08-10T16:48:09.698Z,28.62
2022-08-10T16:51:07.189Z,28.71
2022-08-10T16:53:58.092Z,28.21
2022-08-10T16:56:49.056Z,28.71
2022-08-10T16:59:24.358Z,29.49
2022-08-10T17:01:54.197Z,30.92
2022-08-10T17:04:23.442Z,30.73
2022-08-10T17:07:02.663Z,29.21
2022-08-10T17:09:34.261Z,29.86
2022-08-10T17:12:11.445Z,29.99
2022-08-10T17:14:41.735Z,30.12
2022-08-10T17:17:27.566Z,29.47
2022-08-10T17:20:31.141Z,29.99
2022-08-10T17:22:54.888Z,30.34
2022-08-10T17:25:45.899Z,30.19
2022-08-10T17:28:32.763Z,32.08
2022-08-10T17:31:18.981Z,30.77
2022-08-10T17:34:21.372Z,29.92
2022-08-10T17:36:57.315Z,32.06
2022-08-10T17:39:43.376Z,30.93
2022-08-10T17:42:12.271Z,33.84
2022-08-10T17:44:40.875Z,34.71
2022-08-10T17:47:11.672Z,34.38
2022-08-10T17:49:39.981Z,35.65
2022-08-10T17:52:11.092Z,33.13
2022-08-10T17:54:47.561Z,32.85
2022-08-10T17:57:21.572Z,33.49
2022-08-10T17:59:52.880Z,35.03
2022-08-10T18:02:27.579Z,33.61
2022-08-10T18:04:58.814Z,33.98
2022-08-10T18:07:41.269Z,33.74
2022-08-10T18:10:11.536Z,34.14
2022-08-10T18:12:49.956Z,33.88
2022-08-10T18:15:24.968Z,34.74
2022-08-10T18:17:59.891Z,34.74
2022-08-10T18:20:35.704Z,33.85
2022-08-10T18:23:05.141Z,35.90
2022-08-10T18:25:40.493Z,36.06
2022-08-10T18:28:16.249Z,38.14
2022-08-10T18:33:50.495Z,38.83
2022-08-10T18:36:18.882Z,37.67
2022-08-10T18:38:50.331Z,39.61
2022-08-10T18:41:30.685Z,40.61
2022-08-10T18:44:15.436Z,39.91
2022-08-10T18:46:59.925Z,40.67
2022-08-10T18:49:40.557Z,41.39
2022-08-10T18:52:14.675Z,41.28
2022-08-10T18:54:53.798Z,43.03
2022-08-10T18:57:48.605Z,41.10
2022-08-10T19:00:19.327Z,45.21
2022-08-10T19:03:11.523Z,43.43
2022-08-10T19:05:59.134Z,42.08
2022-08-10T19:09:03.106Z,42.71
2022-08-10T19:11:58.448Z,44.68
2022-08-10T19:14:37.667Z,43.95
2022-08-10T19:18:03.051Z,43.79
2022-08-10T19:21:33.124Z,45.91
2022-08-10T19:24:32.519Z,45.60
2022-08-10T19:27:33.551Z,45.69
2022-08-10T19:30:16.606Z,46.28
2022-08-10T19:33:14.220Z,47.06
2022-08-10T19:36:05.381Z,48.83
2022-08-10T19:38:50.267Z,49.70
2022-08-10T19:41:59.209Z,49.24
2022-08-10T19:45:01.132Z,49.36
2022-08-10T19:47:43.168Z,48.91
2022-08-10T19:50:19.946Z,49.51
2022-08-10T19:53:02.640Z,50.26
2022-08-10T19:56:01.937Z,50.75
2022-08-10T19:59:14.044Z,49.74
2022-08-10T20:01:55.386Z,51.10
2022-08-10T20:04:33.178Z,50.89
2022-08-10T20:07:13.649Z,51.16
2022-08-10T20:10:29.329Z,51.45
2022-08-10T20:13:21.936Z,51.68
2022-08-10T20:16:03.506Z,51.96
2022-08-10T20:19:05.489Z,51.68
2022-08-10T20:21:42.162Z,52.41
2022-08-10T20:24:32.447Z,53.15
2022-08-10T20:27:58.987Z,52.65
2022-08-10T20:30:15.732Z,53.09
2022-08-10T20:32:43.478Z,52.62
2022-08-10T20:35:53.271Z,52.22
2022-08-10T20:38:32.886Z,52.61
2022-08-10T20:41:24.570Z,52.24
2022-08-10T20:44:26.492Z,53.23
2022-08-10T20:47:17.226Z,52.89
2022-08-10T20:50:22.686Z,52.31
2022-08-10T20:52:52.849Z,54.13
2022-08-10T20:55:24.031Z,53.76
2022-08-10T20:58:37.876Z,53.26
2022-08-10T21:02:07.064Z,53.32
2022-08-10T21:04:51.881Z,54.13
2022-08-10T21:08:01.838Z,54.51
2022-08-10T21:11:02.996Z,54.53
2022-08-10T21:14:01.187Z,55.43
2022-08-10T21:16:47.492Z,55.05
2022-08-10T21:19:36.061Z,54.82
2022-08-10T21:22:23.814Z,54.09
2022-08-10T21:25:29.456Z,55.02
2022-08-10T21:28:31.677Z,54.46
2022-08-10T21:31:23.424Z,55.00
2022-08-10T21:33:59.343Z,56.67
2022-08-10T21:36:58.316Z,54.25
2022-08-10T21:39:43.375Z,54.37
2022-08-10T21:42:55.424Z,54.96
2022-08-10T21:46:15.724Z,54.92
2022-08-10T21:49:37.079Z,55.05
2022-08-10T21:52:35.872Z,55.81
2022-08-10T21:56:14.210Z,55.48
2022-08-10T21:59:24.492Z,56.07
2022-08-10T22:05:39.323Z,57.57
2022-08-10T22:11:49.191Z,57.74
2022-08-10T22:15:01.163Z,57.90
2022-08-10T22:18:05.035Z,58.00
2022-08-10T22:21:03.913Z,57.70
2022-08-10T22:24:34.389Z,58.08
2022-08-10T22:27:47.012Z,58.01
2022-08-10T22:30:41.450Z,60.12
2022-08-10T22:34:13.587Z,57.80
2022-08-10T22:37:33.418Z,57.77
2022-08-10T22:40:41.903Z,57.81
2022-08-10T22:43:45.391Z,58.14
2022-08-10T22:46:46.316Z,58.56
2022-08-10T22:49:21.067Z,59.18
2022-08-10T22:52:10.831Z,58.63
2022-08-10T22:55:18.037Z,58.79
2022-08-10T22:58:05.890Z,61.83
2022-08-10T23:00:34.218Z,61.71
2022-08-10T23:03:22.176Z,59.97
2022-08-10T23:06:11.576Z,59.50
2022-08-10T23:08:51.197Z,59.66
2022-08-10T23:11:33.097Z,59.68
2022-08-10T23:14:10.486Z,60.90
2022-08-10T23:17:09.041Z,60.64
2022-08-10T23:20:04.369Z,62.03
2022-08-10T23:22:44.677Z,61.58
2022-08-10T23:25:20.705Z,60.99
2022-08-10T23:27:55.909Z,63.11
2022-08-10T23:30:45.116Z,61.48
2022-08-10T23:33:37.676Z,61.17
2022-08-10T23:36:33.418Z,61.72
2022-08-10T23:39:25.193Z,61.18
2022-08-10T23:41:53.288Z,62.59
2022-08-10T23:44:22.731Z,62.55
2022-08-10T23:46:51.595Z,62.76
2022-08-10T23:49:20.165Z,62.88
2022-08-10T23:51:55.510Z,63.24
2022-08-10T23:54:25.723Z,63.64
2022-08-10T23:57:01.004Z,62.78
2022-08-10T23:59:31.951Z,63.68
